createdAt,value
2023-01-09T00:01:44.447Z,98088.00
2023-01-09T00:04:12.832Z,98091.00
2023-01-09T00:06:48.030Z,98073.00
2023-01-09T00:09:15.003Z,98056.00
2023-01-09T00:11:49.091Z,98043.00
2023-01-09T00:14:18.160Z,98026.00
2023-01-09T00:16:52.616Z,98026.00
2023-01-09T00:19:19.473Z,98034.00
2023-01-09T00:21:52.766Z,98038.00
2023-01-09T00:24:19.644Z,98013.00
2023-01-09T00:26:46.561Z,98000.00
2023-01-09T00:29:20.618Z,98012.00
2023-01-09T00:31:47.543Z,98029.00
2023-01-09T00:34:14.982Z,98036.00
2023-01-09T00:36:48.615Z,98011.00
2023-01-09T00:39:15.885Z,98016.00
2023-01-09T00:41:55.050Z,98002.00
2023-01-09T00:44:25.880Z,98006.00
2023-01-09T00:47:08.125Z,98005.00
2023-01-09T00:49:36.820Z,98000.00
2023-01-09T00:52:11.704Z,97999.00
2023-01-09T00:54:40.704Z,98014.00
2023-01-09T00:57:08.370Z,97978.00
2023-01-09T00:59:43.515Z,97990.00
2023-01-09T01:02:10.740Z,98025.00
2023-01-09T01:04:37.816Z,98002.00
2023-01-09T01:07:11.877Z,97989.00
2023-01-09T01:09:39.827Z,97981.00
2023-01-09T01:12:08.009Z,98025.00
2023-01-09T01:14:44.640Z,97984.00
2023-01-09T01:17:18.678Z,98012.00
2023-01-09T01:19:47.290Z,97981.00
2023-01-09T01:22:14.445Z,97970.00
2023-01-09T01:24:47.648Z,97975.00
2023-01-09T01:27:15.953Z,97989.00
2023-01-09T01:29:49.687Z,97946.00
2023-01-09T01:32:24.926Z,97982.00
2023-01-09T01:35:00.470Z,97978.00
2023-01-09T01:37:28.359Z,97960.00
2023-01-09T01:39:55.472Z,97927.00
2023-01-09T01:42:29.684Z,97952.00
2023-01-09T01:45:09.365Z,97938.00
2023-01-09T01:48:05.942Z,97982.00
2023-01-09T01:50:58.379Z,97947.00
2023-01-09T01:53:42.261Z,97964.00
2023-01-09T01:56:37.252Z,97956.00
2023-01-09T01:59:24.544Z,97946.00
2023-01-09T02:01:54.769Z,97932.00
2023-01-09T02:04:28.661Z,97953.00
2023-01-09T02:07:03.697Z,97967.00
2023-01-09T02:09:31.589Z,97971.00
2023-01-09T02:12:05.752Z,97992.00
2023-01-09T02:14:33.971Z,97995.00
2023-01-09T02:17:20.253Z,97992.00
2023-01-09T02:20:15.934Z,97981.00
2023-01-09T02:23:09.664Z,97972.00
2023-01-09T02:26:24.174Z,97962.00
2023-01-09T02:29:27.562Z,97951.00
2023-01-09T02:32:30.153Z,97963.00
2023-01-09T02:35:18.745Z,97943.00
2023-01-09T02:38:30.707Z,97938.00
2023-01-09T02:41:02.233Z,97924.00
2023-01-09T02:43:30.566Z,97922.00
2023-01-09T02:46:03.824Z,97898.00
2023-01-09T02:48:32.652Z,97906.00
2023-01-09T02:51:17.895Z,97897.00
2023-01-09T02:54:08.688Z,97902.00
2023-01-09T02:57:15.263Z,97902.00
2023-01-09T02:59:57.000Z,97898.00
2023-01-09T03:03:15.749Z,97884.00
2023-01-09T03:06:17.687Z,97867.00
2023-01-09T03:08:49.412Z,97826.00
2023-01-09T03:11:25.678Z,97846.00
2023-01-09T03:13:56.858Z,97856.00
2023-01-09T03:16:33.816Z,97865.00
2023-01-09T03:19:00.983Z,97866.00
2023-01-09T03:21:34.852Z,97883.00
2023-01-09T03:24:02.368Z,97903.00
2023-01-09T03:26:35.794Z,97887.00
2023-01-09T03:29:09.815Z,97912.00
2023-01-09T03:31:39.383Z,97880.00
2023-01-09T03:34:13.756Z,97874.00
2023-01-09T03:36:48.862Z,97910.00
2023-01-09T03:39:22.742Z,97900.00
2023-01-09T03:41:55.719Z,97903.00
2023-01-09T03:44:29.769Z,97892.00
2023-01-09T03:46:57.031Z,97917.00
2023-01-09T03:49:32.800Z,97857.00
2023-01-09T03:52:02.461Z,97850.00
2023-01-09T03:54:35.801Z,97856.00
2023-01-09T03:57:03.098Z,97853.00
2023-01-09T03:59:36.892Z,97828.00
2023-01-09T04:02:04.289Z,97845.00
2023-01-09T04:04:37.810Z,97859.00
2023-01-09T04:07:06.281Z,97886.00
2023-01-09T04:09:39.751Z,97867.00
2023-01-09T04:12:13.801Z,97845.00
2023-01-09T04:14:40.724Z,97862.00
2023-01-09T04:17:13.834Z,97858.00
2023-01-09T04:19:41.075Z,97866.00
2023-01-09T04:22:08.336Z,97839.00
2023-01-09T04:24:41.782Z,97836.00
2023-01-09T04:27:09.026Z,97832.00
2023-01-09T04:29:42.785Z,97825.00
2023-01-09T04:32:10.166Z,97870.00
2023-01-09T04:34:47.751Z,97863.00
2023-01-09T04:37:17.350Z,97879.00
2023-01-09T04:39:53.080Z,97834.00
2023-01-09T04:42:21.578Z,97823.00
2023-01-09T04:44:54.836Z,97808.00
2023-01-09T04:47:30.768Z,97796.00
2023-01-09T04:50:07.138Z,97800.00
2023-01-09T04:52:40.848Z,97795.00
2023-01-09T04:55:08.645Z,97797.00
2023-01-09T04:57:44.171Z,97793.00
2023-01-09T05:00:13.034Z,97797.00
2023-01-09T05:02:46.785Z,97799.00
2023-01-09T05:05:13.786Z,97817.00
2023-01-09T05:07:47.778Z,97818.00
2023-01-09T05:10:15.011Z,97785.00
2023-01-09T05:12:48.818Z,97821.00
2023-01-09T05:15:19.088Z,97822.00
2023-01-09T05:17:48.260Z,97800.00
2023-01-09T05:20:21.770Z,97809.00
2023-01-09T05:22:48.913Z,97835.00
2023-01-09T05:25:22.773Z,97827.00
2023-01-09T05:27:52.217Z,97840.00
2023-01-09T05:30:26.864Z,97807.00
2023-01-09T05:32:54.077Z,97855.00
2023-01-09T05:35:28.848Z,97823.00
2023-01-09T05:37:56.162Z,97859.00
2023-01-09T05:40:28.896Z,97839.00
2023-01-09T05:43:05.819Z,97830.00
2023-01-09T05:45:32.930Z,97865.00
2023-01-09T05:48:06.877Z,97881.00
2023-01-09T05:50:33.943Z,97850.00
2023-01-09T05:53:07.840Z,97830.00
2023-01-09T05:55:35.006Z,97880.00
2023-01-09T05:58:14.347Z,97849.00
2023-01-09T06:00:41.568Z,97850.00
2023-01-09T06:03:08.739Z,97850.00
2023-01-09T06:05:44.883Z,97853.00
2023-01-09T06:08:12.079Z,97858.00
2023-01-09T06:10:39.380Z,97885.00
2023-01-09T06:13:12.863Z,97856.00
2023-01-09T06:15:40.072Z,97878.00
2023-01-09T06:18:13.831Z,97859.00
2023-01-09T06:20:40.811Z,97870.00
2023-01-09T06:23:14.022Z,97872.00
2023-01-09T06:25:41.352Z,97857.00
2023-01-09T06:28:08.287Z,97860.00
2023-01-09T06:30:41.792Z,97889.00
2023-01-09T06:33:08.738Z,97908.00
2023-01-09T06:35:41.809Z,97900.00
2023-01-09T06:38:08.904Z,97899.00
2023-01-09T06:40:42.994Z,97899.00
2023-01-09T06:43:16.863Z,97888.00
2023-01-09T06:45:50.983Z,97901.00
2023-01-09T06:48:24.876Z,97899.00
2023-01-09T06:51:01.865Z,97891.00
2023-01-09T06:53:29.108Z,97891.00
2023-01-09T06:55:56.268Z,97905.00
2023-01-09T06:58:34.911Z,97892.00
2023-01-09T07:01:02.336Z,97915.00
2023-01-09T07:03:29.604Z,97895.00
2023-01-09T07:06:02.885Z,97905.00
2023-01-09T07:08:29.879Z,97893.00
2023-01-09T07:11:03.818Z,97917.00
2023-01-09T07:13:30.823Z,97925.00
2023-01-09T07:16:03.869Z,97924.00
2023-01-09T07:18:30.929Z,97910.00
2023-01-09T07:21:04.830Z,97891.00
2023-01-09T07:23:31.981Z,97916.00
2023-01-09T07:26:00.087Z,97902.00
2023-01-09T07:28:33.821Z,97915.00
2023-01-09T07:31:00.841Z,97915.00
2023-01-09T07:33:34.994Z,97942.00
2023-01-09T07:36:01.925Z,97938.00
2023-01-09T07:38:28.850Z,97945.00
2023-01-09T07:41:01.810Z,97933.00
2023-01-09T07:43:28.745Z,97945.00
2023-01-09T07:45:55.699Z,97927.00
2023-01-09T07:48:31.956Z,97937.00
2023-01-09T07:50:59.263Z,97955.00
2023-01-09T07:53:32.868Z,97939.00
2023-01-09T07:55:59.789Z,97958.00
2023-01-09T07:58:32.933Z,97940.00
2023-01-09T08:01:06.737Z,97971.00
2023-01-09T08:03:39.807Z,97962.00
2023-01-09T08:06:13.926Z,97967.00
2023-01-09T08:08:40.858Z,97956.00
2023-01-09T08:11:13.841Z,97923.00
2023-01-09T08:13:40.815Z,97925.00
2023-01-09T08:16:14.872Z,97914.00
2023-01-09T08:18:41.822Z,97920.00
2023-01-09T08:21:14.801Z,97937.00
2023-01-09T08:23:47.917Z,97950.00
2023-01-09T08:26:14.859Z,97930.00
2023-01-09T08:28:48.025Z,97919.00
2023-01-09T08:31:15.528Z,97914.00
2023-01-09T08:33:48.833Z,97904.00
2023-01-09T08:36:15.754Z,97906.00
2023-01-09T08:38:48.891Z,97903.00
2023-01-09T08:41:16.000Z,97919.00
2023-01-09T08:43:50.139Z,97906.00
2023-01-09T08:46:20.474Z,97934.00
2023-01-09T08:48:53.876Z,97920.00
2023-01-09T08:51:20.812Z,97925.00
2023-01-09T08:53:53.834Z,97947.00
2023-01-09T08:56:26.903Z,97921.00
2023-01-09T08:58:53.819Z,97932.00
2023-01-09T09:01:26.897Z,97919.00
2023-01-09T09:04:00.829Z,97946.00
2023-01-09T09:06:33.891Z,97935.00
2023-01-09T09:09:01.115Z,97942.00
2023-01-09T09:11:34.941Z,97924.00
2023-01-09T09:14:08.885Z,97893.00
2023-01-09T09:16:35.824Z,97914.00
2023-01-09T09:19:09.003Z,97900.00
2023-01-09T09:21:35.979Z,97924.00
2023-01-09T09:24:08.904Z,97929.00
2023-01-09T09:26:44.571Z,97934.00
2023-01-09T09:29:18.875Z,97923.00
2023-01-09T09:31:45.727Z,97939.00
2023-01-09T09:34:19.083Z,97913.00
2023-01-09T09:36:46.559Z,97931.00
2023-01-09T09:39:13.514Z,97942.00
2023-01-09T09:42:19.952Z,97934.00
2023-01-09T09:44:56.051Z,97937.00
2023-01-09T09:47:38.889Z,97925.00
2023-01-09T09:50:24.774Z,97922.00
2023-01-09T09:53:34.020Z,97931.00
2023-01-09T09:56:01.013Z,97921.00
2023-01-09T09:58:53.070Z,97898.00
2023-01-09T10:01:27.337Z,97880.00
2023-01-09T10:04:03.881Z,97874.00
2023-01-09T10:07:05.912Z,97880.00
2023-01-09T10:09:47.766Z,97883.00
2023-01-09T10:12:36.939Z,97888.00
2023-01-09T10:15:29.684Z,97886.00
2023-01-09T10:18:41.079Z,97870.00
2023-01-09T10:21:23.112Z,97884.00
2023-01-09T10:24:20.982Z,97881.00
2023-01-09T10:26:52.372Z,97868.00
2023-01-09T10:29:40.158Z,97887.00
2023-01-09T10:32:36.595Z,97868.00
2023-01-09T10:35:57.984Z,97867.00
2023-01-09T10:38:32.902Z,97862.00
2023-01-09T10:41:08.977Z,97844.00
2023-01-09T10:44:08.909Z,97854.00
2023-01-09T10:46:52.873Z,97843.00
2023-01-09T10:49:25.905Z,97839.00
2023-01-09T10:52:20.565Z,97823.00
2023-01-09T10:55:08.009Z,97839.00
2023-01-09T10:57:46.385Z,97835.00
2023-01-09T11:00:28.931Z,97843.00
2023-01-09T11:03:01.984Z,97832.00
2023-01-09T11:05:32.472Z,97844.00
2023-01-09T11:08:31.980Z,97828.00
2023-01-09T11:11:07.918Z,97823.00
2023-01-09T11:13:36.666Z,97809.00
2023-01-09T11:16:27.903Z,97814.00
2023-01-09T11:18:56.631Z,97817.00
2023-01-09T11:21:44.954Z,97826.00
2023-01-09T11:24:21.047Z,97819.00
2023-01-09T11:26:56.946Z,97820.00
2023-01-09T11:29:30.966Z,97818.00
2023-01-09T11:31:59.039Z,97790.00
2023-01-09T11:34:37.905Z,97798.00
2023-01-09T11:37:19.929Z,97781.00
2023-01-09T11:39:52.919Z,97776.00
2023-01-09T11:42:32.929Z,97780.00
2023-01-09T11:45:05.950Z,97778.00
2023-01-09T11:47:40.002Z,97768.00
2023-01-09T11:50:28.077Z,97783.00
2023-01-09T11:53:18.123Z,97787.00
2023-01-09T11:55:52.902Z,97780.00
2023-01-09T11:58:21.616Z,97779.00
2023-01-09T12:01:42.991Z,97776.00
2023-01-09T12:04:49.729Z,97779.00
2023-01-09T12:08:04.971Z,97777.00
2023-01-09T12:10:49.956Z,97774.00
2023-01-09T12:13:39.032Z,97759.00
2023-01-09T12:17:00.022Z,97768.00
2023-01-09T12:20:06.979Z,97753.00
2023-01-09T12:22:55.320Z,97774.00
2023-01-09T12:26:07.017Z,97766.00
2023-01-09T12:28:47.277Z,97755.00
2023-01-09T12:31:46.071Z,97773.00
2023-01-09T12:34:32.349Z,97757.00
2023-01-09T12:37:38.925Z,97753.00
2023-01-09T12:40:23.003Z,97758.00
2023-01-09T12:43:42.962Z,97753.00
2023-01-09T12:46:23.062Z,97749.00
2023-01-09T12:49:26.977Z,97734.00
2023-01-09T12:52:12.429Z,97736.00
2023-01-09T12:55:04.945Z,97717.00
2023-01-09T12:57:42.093Z,97715.00
2023-01-09T13:00:28.986Z,97715.00
2023-01-09T13:03:37.532Z,97720.00
2023-01-09T13:06:13.152Z,97686.00
2023-01-09T13:08:42.619Z,97719.00
2023-01-09T13:11:23.100Z,97706.00
2023-01-09T13:14:00.881Z,97708.00
2023-01-09T13:16:50.032Z,97726.00
2023-01-09T13:19:37.954Z,97722.00
2023-01-09T13:22:18.995Z,97727.00
2023-01-09T13:25:28.057Z,97716.00
2023-01-09T13:28:07.111Z,97719.00
2023-01-09T13:30:58.539Z,97721.00
2023-01-09T13:33:44.075Z,97714.00
2023-01-09T13:36:29.750Z,97698.00
2023-01-09T13:39:04.005Z,97711.00
2023-01-09T13:41:32.507Z,97695.00
2023-01-09T13:44:11.015Z,97708.00
2023-01-09T13:46:44.492Z,97691.00
2023-01-09T13:49:49.038Z,97708.00
2023-01-09T13:52:30.624Z,97715.00
2023-01-09T13:55:04.045Z,97695.00
2023-01-09T13:57:35.488Z,97714.00
2023-01-09T14:00:32.013Z,97726.00
2023-01-09T14:03:22.042Z,97718.00
2023-01-09T14:05:48.848Z,97704.00
2023-01-09T14:08:26.125Z,97706.00
2023-01-09T14:10:57.528Z,97697.00
2023-01-09T14:13:44.048Z,97711.00
2023-01-09T14:16:23.890Z,97707.00
2023-01-09T14:19:31.086Z,97717.00
2023-01-09T14:21:58.109Z,97687.00
2023-01-09T14:24:49.125Z,97703.00
2023-01-09T14:27:54.146Z,97697.00
2023-01-09T14:30:33.144Z,97690.00
2023-01-09T14:33:25.013Z,97700.00
2023-01-09T14:36:25.072Z,97692.00
2023-01-09T14:39:06.061Z,97684.00
2023-01-09T14:41:53.588Z,97706.00
2023-01-09T14:44:57.087Z,97704.00
2023-01-09T14:47:57.028Z,97702.00
2023-01-09T14:50:59.806Z,97707.00
2023-01-09T14:53:40.016Z,97719.00
2023-01-09T14:56:30.132Z,97692.00
2023-01-09T14:59:18.069Z,97714.00
2023-01-09T15:01:47.543Z,97719.00
2023-01-09T15:04:40.168Z,97709.00
2023-01-09T15:07:07.139Z,97721.00
2023-01-09T15:09:52.048Z,97727.00
2023-01-09T15:12:29.143Z,97734.00
2023-01-09T15:14:58.371Z,97732.00
2023-01-09T15:17:29.031Z,97759.00
2023-01-09T15:20:03.143Z,97739.00
2023-01-09T15:22:31.599Z,97757.00
2023-01-09T15:25:05.145Z,97756.00
2023-01-09T15:27:39.183Z,97773.00
2023-01-09T15:30:24.125Z,97769.00
2023-01-09T15:32:51.540Z,97785.00
2023-01-09T15:35:25.268Z,97770.00
2023-01-09T15:37:54.901Z,97771.00
2023-01-09T15:40:34.186Z,97792.00
2023-01-09T15:43:01.185Z,97772.00
2023-01-09T15:45:47.073Z,97776.00
2023-01-09T15:48:31.877Z,97790.00
2023-01-09T15:51:17.130Z,97783.00
2023-01-09T15:53:46.482Z,97776.00
2023-01-09T15:56:34.123Z,97807.00
2023-01-09T15:59:08.208Z,97783.00
2023-01-09T16:01:39.015Z,97801.00
2023-01-09T16:04:20.089Z,97814.00
2023-01-09T16:06:50.227Z,97824.00
2023-01-09T16:09:37.116Z,97801.00
2023-01-09T16:12:11.120Z,97842.00
2023-01-09T16:14:40.204Z,97841.00
2023-01-09T16:17:32.151Z,97829.00
2023-01-09T16:20:12.547Z,97822.00
2023-01-09T16:23:01.366Z,97870.00
2023-01-09T16:25:28.850Z,97872.00
2023-01-09T16:28:22.149Z,97863.00
2023-01-09T16:31:15.726Z,97852.00
2023-01-09T16:33:56.145Z,97862.00
2023-01-09T16:36:30.168Z,97873.00
2023-01-09T16:39:04.204Z,97880.00
2023-01-09T16:41:31.337Z,97873.00
2023-01-09T16:44:06.761Z,97898.00
2023-01-09T16:46:33.956Z,97855.00
2023-01-09T16:49:08.146Z,97883.00
2023-01-09T16:51:35.128Z,97914.00
2023-01-09T16:54:08.108Z,97898.00
2023-01-09T16:56:41.118Z,97919.00
2023-01-09T16:59:22.235Z,97929.00
2023-01-09T17:01:49.494Z,97899.00
2023-01-09T17:04:23.191Z,97950.00
2023-01-09T17:06:57.207Z,97924.00
2023-01-09T17:09:26.559Z,97910.00
2023-01-09T17:12:01.197Z,97905.00
2023-01-09T17:14:28.689Z,97955.00
2023-01-09T17:17:05.435Z,97920.00
2023-01-09T17:19:32.838Z,97930.00
2023-01-09T17:22:06.254Z,97942.00
2023-01-09T17:24:34.078Z,97914.00
2023-01-09T17:27:10.295Z,97961.00
2023-01-09T17:29:42.144Z,97966.00
2023-01-09T17:32:20.301Z,97963.00
2023-01-09T17:34:48.182Z,97997.00
2023-01-09T17:37:20.411Z,97967.00
2023-01-09T17:39:57.171Z,97977.00
2023-01-09T17:42:31.150Z,97986.00
2023-01-09T17:44:58.490Z,98004.00
2023-01-09T17:47:32.335Z,97990.00
2023-01-09T17:50:04.089Z,97988.00
2023-01-09T17:52:38.283Z,97986.00
2023-01-09T17:55:12.317Z,97993.00
2023-01-09T17:57:49.173Z,98000.00
2023-01-09T18:00:34.491Z,98013.00
2023-01-09T18:03:08.255Z,97994.00
2023-01-09T18:05:35.384Z,98024.00
2023-01-09T18:08:05.190Z,98011.00
2023-01-09T18:10:44.048Z,98004.00
2023-01-09T18:13:12.340Z,97987.00
2023-01-09T18:15:50.648Z,97997.00
2023-01-09T18:18:25.343Z,97981.00
2023-01-09T18:21:02.850Z,97999.00
2023-01-09T18:23:36.262Z,98007.00
2023-01-09T18:26:10.099Z,98013.00
2023-01-09T18:28:45.315Z,98044.00
2023-01-09T18:31:12.397Z,98054.00
2023-01-09T18:33:46.156Z,98066.00
2023-01-09T18:36:13.288Z,98042.00
2023-01-09T18:38:40.300Z,98043.00
2023-01-09T18:41:14.767Z,98076.00
2023-01-09T18:43:43.384Z,98043.00
2023-01-09T18:46:17.252Z,98075.00
2023-01-09T18:48:44.348Z,98055.00
2023-01-09T18:51:18.190Z,98049.00
2023-01-09T18:53:45.582Z,98073.00
2023-01-09T18:56:19.257Z,98100.00
2023-01-09T18:58:47.381Z,98080.00
2023-01-09T19:01:21.371Z,98074.00
2023-01-09T19:03:48.673Z,98104.00
2023-01-09T19:06:28.260Z,98078.00
2023-01-09T19:09:02.198Z,98112.00
2023-01-09T19:11:29.222Z,98108.00
2023-01-09T19:14:03.143Z,98126.00
2023-01-09T19:16:30.139Z,98132.00
2023-01-09T19:19:03.164Z,98115.00
2023-01-09T19:21:30.111Z,98138.00
2023-01-09T19:23:57.128Z,98140.00
2023-01-09T19:26:33.198Z,98140.00
2023-01-09T19:29:00.691Z,98141.00
2023-01-09T19:31:34.383Z,98139.00
2023-01-09T19:34:01.421Z,98137.00
2023-01-09T19:36:35.435Z,98135.00
2023-01-09T19:39:03.301Z,98164.00
2023-01-09T19:41:30.373Z,98160.00
2023-01-09T19:44:05.188Z,98176.00
2023-01-09T19:46:32.458Z,98167.00
2023-01-09T19:48:59.626Z,98181.00
2023-01-09T19:51:33.306Z,98163.00
2023-01-09T19:54:03.202Z,98193.00
2023-01-09T19:56:38.279Z,98166.00
2023-01-09T19:59:05.629Z,98176.00
2023-01-09T20:01:37.643Z,98175.00
2023-01-09T20:04:13.250Z,98168.00
2023-01-09T20:06:42.255Z,98184.00
2023-01-09T20:09:16.344Z,98176.00
2023-01-09T20:11:43.405Z,98176.00
2023-01-09T20:14:26.284Z,98196.00
2023-01-09T20:16:53.576Z,98164.00
2023-01-09T20:19:27.304Z,98216.00
2023-01-09T20:21:54.390Z,98169.00
2023-01-09T20:24:28.222Z,98191.00
2023-01-09T20:26:55.286Z,98184.00
2023-01-09T20:29:29.270Z,98218.00
2023-01-09T20:32:03.382Z,98167.00
2023-01-09T20:34:37.394Z,98212.00
2023-01-09T20:37:04.531Z,98212.00
2023-01-09T20:39:38.379Z,98193.00
2023-01-09T20:42:05.486Z,98193.00
2023-01-09T20:44:32.588Z,98179.00
2023-01-09T20:47:06.300Z,98193.00
2023-01-09T20:49:40.239Z,98212.00
2023-01-09T20:52:14.349Z,98233.00
2023-01-09T20:54:41.518Z,98241.00
2023-01-09T20:57:08.763Z,98228.00
2023-01-09T20:59:42.295Z,98203.00
2023-01-09T21:02:21.283Z,98213.00
2023-01-09T21:04:49.388Z,98210.00
2023-01-09T21:07:16.507Z,98187.00
2023-01-09T21:09:50.893Z,98210.00
2023-01-09T21:12:25.254Z,98223.00
2023-01-09T21:14:56.549Z,98241.00
2023-01-09T21:17:30.334Z,98223.00
2023-01-09T21:19:57.553Z,98231.00
2023-01-09T21:22:40.331Z,98259.00
2023-01-09T21:25:08.130Z,98236.00
2023-01-09T21:27:48.433Z,98247.00
2023-01-09T21:30:15.775Z,98255.00
2023-01-09T21:32:42.925Z,98286.00
2023-01-09T21:35:16.284Z,98262.00
2023-01-09T21:37:43.391Z,98244.00
2023-01-09T21:40:18.387Z,98282.00
2023-01-09T21:42:45.668Z,98313.00
2023-01-09T21:45:23.308Z,98300.00
2023-01-09T21:47:56.413Z,98287.00
2023-01-09T21:50:23.524Z,98270.00
2023-01-09T21:52:50.589Z,98285.00
2023-01-09T21:55:24.330Z,98264.00
2023-01-09T21:58:03.409Z,98274.00
2023-01-09T22:00:30.483Z,98315.00
2023-01-09T22:02:57.546Z,98311.00
2023-01-09T22:05:33.844Z,98300.00
2023-01-09T22:08:00.990Z,98329.00
2023-01-09T22:10:34.488Z,98303.00
2023-01-09T22:13:09.381Z,98291.00
2023-01-09T22:15:45.397Z,98339.00
2023-01-09T22:18:12.935Z,98328.00
2023-01-09T22:20:48.331Z,98301.00
2023-01-09T22:23:17.010Z,98356.00
2023-01-09T22:25:51.371Z,98335.00
2023-01-09T22:28:18.604Z,98290.00
2023-01-09T22:30:47.791Z,98304.00
2023-01-09T22:33:23.140Z,98322.00
2023-01-09T22:35:51.477Z,98327.00
2023-01-09T22:38:25.783Z,98335.00
2023-01-09T22:40:59.376Z,98362.00
2023-01-09T22:43:29.267Z,98373.00
2023-01-09T22:46:11.781Z,98339.00
2023-01-09T22:48:39.759Z,98342.00
2023-01-09T22:51:22.542Z,98357.00
2023-01-09T22:53:50.351Z,98333.00
2023-01-09T22:56:22.795Z,98367.00
2023-01-09T22:58:58.668Z,98375.00
2023-01-09T23:01:32.322Z,98388.00
2023-01-09T23:04:06.609Z,98391.00
2023-01-09T23:06:44.797Z,98361.00
2023-01-09T23:09:15.237Z,98352.00
2023-01-09T23:11:55.472Z,98358.00
2023-01-09T23:14:29.805Z,98391.00
2023-01-09T23:16:57.564Z,98366.00
2023-01-09T23:19:31.389Z,98391.00
2023-01-09T23:22:00.602Z,98374.00
2023-01-09T23:24:34.387Z,98370.00
2023-01-09T23:27:02.814Z,98381.00
2023-01-09T23:29:38.782Z,98383.00
2023-01-09T23:32:13.395Z,98396.00
2023-01-09T23:34:40.471Z,98412.00
2023-01-09T23:37:14.415Z,98413.00
2023-01-09T23:39:41.521Z,98404.00
2023-01-09T23:42:17.397Z,98419.00
2023-01-09T23:44:44.320Z,98447.00
2023-01-09T23:47:12.524Z,98460.00
2023-01-09T23:49:47.299Z,98426.00
2023-01-09T23:52:14.927Z,98459.00
2023-01-09T23:54:48.658Z,98423.00
2023-01-09T23:57:22.364Z,98456.00
2023-01-09T23:59:56.343Z,98464.00
